Time;durP1;ratioP1;P1;durP2;ratioP2;P2;SDS_P1;SDS_P2;PMS_P1;PMS_P2;Temp;Humidity;BMP_temperature;BMP_pressure;BME280_temperature;BME280_humidity;BME280_pressure;Samples;Min_cycle;Max_cycle;Signal;HPM_P1;HPM_P2
2021/12/28 00:01:53;;;;;;;;;3.50;0.75;;;;;12.38;78.73;98995.50;5071412;28;45977;-55
2021/12/28 00:04:18;;;;;;;;;0.00;0.00;;;;;12.35;78.71;98998.44;5082736;27;45451;-54
2021/12/28 00:06:44;;;;;;;;;0.00;0.00;;;;;12.30;79.00;98989.13;5083088;28;45259;-55
2021/12/28 00:09:09;;;;;;;;;1.00;0.00;;;;;12.30;79.03;98993.56;5082793;28;45388;-55
2021/12/28 00:11:35;;;;;;;;;1.75;0.25;;;;;12.29;79.00;98976.91;5082770;28;45286;-54
2021/12/28 00:14:02;;;;;;;;;2.00;1.00;;;;;12.27;79.04;98973.59;5082626;28;45240;-54
2021/12/28 00:16:34;;;;;;;;;1.00;0.00;;;;;12.23;79.14;98966.09;5082679;28;45396;-56
2021/12/28 00:19:02;;;;;;;;;0.00;0.00;;;;;12.21;79.29;98970.69;5082507;28;45346;-55
2021/12/28 00:21:28;;;;;;;;;1.25;0.00;;;;;12.19;79.49;98965.56;5082255;28;45320;-55
2021/12/28 00:23:54;;;;;;;;;0.00;0.00;;;;;12.21;79.56;98955.69;5082462;28;45180;-55
2021/12/28 00:26:22;;;;;;;;;1.00;0.00;;;;;12.21;79.65;98963.59;5081103;28;45415;-56
2021/12/28 00:28:48;;;;;;;;;0.00;0.00;;;;;12.23;79.76;98960.81;5082233;28;45539;-55
2021/12/28 00:31:15;;;;;;;;;1.00;1.00;;;;;12.25;79.65;98950.97;5081976;28;45425;-55
2021/12/28 00:33:42;;;;;;;;;1.00;1.00;;;;;12.24;79.62;98943.97;5082186;28;45437;-56
2021/12/28 00:36:07;;;;;;;;;0.00;0.00;;;;;12.24;79.73;98947.50;5082393;28;45263;-56
2021/12/28 00:38:33;;;;;;;;;3.00;0.00;;;;;12.23;79.58;98944.97;5082400;28;45172;-56
2021/12/28 00:41:01;;;;;;;;;0.00;0.00;;;;;12.21;79.61;98946.94;5082229;28;46137;-55
2021/12/28 00:43:29;;;;;;;;;1.00;1.00;;;;;12.21;79.88;98950.41;5063722;28;45531;-56
2021/12/28 00:45:54;;;;;;;;;2.00;1.00;;;;;12.21;79.88;98955.69;5072266;28;45299;-57
2021/12/28 00:48:20;;;;;;;;;2.00;1.00;;;;;12.23;80.03;98966.91;5082062;28;45402;-56
2021/12/28 00:50:47;;;;;;;;;0.00;0.00;;;;;12.23;80.06;98968.72;5064385;28;45340;-55
2021/12/28 00:53:12;;;;;;;;;0.50;0.50;;;;;12.24;80.00;98958.03;5061599;28;45373;-56
2021/12/28 00:55:38;;;;;;;;;1.00;1.00;;;;;12.24;80.06;98955.41;5068444;28;45219;-56
2021/12/28 00:58:04;;;;;;;;;1.25;0.50;;;;;12.27;80.12;98967.47;5065042;27;45528;-56
2021/12/28 01:00:33;;;;;;;;;0.00;0.00;;;;;12.28;80.12;98971.78;5065344;28;46996;-55
2021/12/28 01:03:01;;;;;;;;;1.00;1.00;;;;;12.29;80.07;98960.22;5079520;28;45539;-56
2021/12/28 01:05:28;;;;;;;;;2.00;0.00;;;;;12.30;80.12;98965.38;5082072;28;45635;-56
2021/12/28 01:07:55;;;;;;;;;1.00;1.00;;;;;12.33;79.97;98963.44;5081857;28;45229;-55
2021/12/28 01:10:25;;;;;;;;;2.00;0.00;;;;;12.33;80.29;98958.97;5081706;28;45357;-56
2021/12/28 01:12:52;;;;;;;;;0.75;0.00;;;;;12.36;80.29;98965.78;5081415;28;45314;-55
2021/12/28 01:15:19;;;;;;;;;0.75;0.75;;;;;12.39;80.28;98970.75;5081497;28;45401;-55
2021/12/28 01:17:45;;;;;;;;;1.50;1.00;;;;;12.40;80.15;98964.50;5081585;28;45306;-55
2021/12/28 01:20:12;;;;;;;;;1.25;1.00;;;;;12.40;80.26;98978.56;5081502;28;45343;-55
2021/12/28 01:22:39;;;;;;;;;0.00;0.00;;;;;12.40;80.41;98965.34;5081474;28;45327;-55
2021/12/28 01:25:07;;;;;;;;;1.00;1.00;;;;;12.39;80.46;98970.75;5081554;28;45315;-54
2021/12/28 01:27:33;;;;;;;;;0.00;0.00;;;;;12.38;80.49;98967.28;5081720;28;45588;-56
2021/12/28 01:29:59;;;;;;;;;0.00;0.00;;;;;12.40;80.63;98967.97;5081238;28;45395;-56
2021/12/28 01:32:25;;;;;;;;;1.50;0.00;;;;;12.43;80.62;98962.41;5080863;28;45361;-55
2021/12/28 01:34:50;;;;;;;;;0.75;0.00;;;;;12.44;80.39;98960.59;5081063;28;45265;-55
2021/12/28 01:37:16;;;;;;;;;0.00;0.00;;;;;12.45;80.48;98951.69;5081560;28;45627;-55
2021/12/28 01:39:42;;;;;;;;;0.00;0.00;;;;;12.46;80.42;98961.28;5081656;28;46250;-56
2021/12/28 01:42:07;;;;;;;;;0.00;0.00;;;;;12.44;80.28;98958.78;5081355;28;45406;-55
2021/12/28 01:44:35;;;;;;;;;0.00;0.00;;;;;12.41;80.26;98963.53;5081682;28;45359;-56
2021/12/28 01:47:02;;;;;;;;;0.00;0.00;;;;;12.37;80.36;98965.63;5081098;28;45285;-55
2021/12/28 01:49:27;;;;;;;;;0.00;0.00;;;;;12.36;80.36;98965.78;5074577;28;46834;-55
2021/12/28 01:51:53;;;;;;;;;0.25;0.00;;;;;12.36;80.38;98981.63;5060929;28;45218;-56
2021/12/28 01:54:19;;;;;;;;;0.00;0.00;;;;;12.37;80.48;98992.03;5061195;28;45436;-54
2021/12/28 01:56:46;;;;;;;;;0.00;0.00;;;;;12.39;80.43;98995.34;5070493;28;45564;-55
2021/12/28 01:59:16;;;;;;;;;0.00;0.00;;;;;12.45;80.52;99007.16;5065398;28;45626;-55
2021/12/28 02:01:42;;;;;;;;;0.00;0.00;;;;;12.51;80.28;99009.22;5068032;28;45320;-55
2021/12/28 02:04:15;;;;;;;;;1.00;0.00;;;;;12.57;80.26;99008.63;5081275;27;45230;-55
2021/12/28 02:06:41;;;;;;;;;0.00;0.00;;;;;12.62;79.81;99016.09;5081189;28;45503;-54
2021/12/28 02:09:06;;;;;;;;;0.00;0.00;;;;;12.68;79.56;99037.50;5080797;28;46022;-55
2021/12/28 02:11:32;;;;;;;;;0.00;0.00;;;;;12.73;79.54;99035.25;5081176;28;45315;-55
2021/12/28 02:13:58;;;;;;;;;0.00;0.00;;;;;12.78;79.32;99043.56;5081112;28;45168;-55
2021/12/28 02:16:24;;;;;;;;;0.00;0.00;;;;;12.81;79.10;99045.91;5080955;28;45303;-55
2021/12/28 02:18:49;;;;;;;;;0.00;0.00;;;;;12.86;78.93;99053.38;5080638;28;45963;-55
2021/12/28 02:21:15;;;;;;;;;0.00;0.00;;;;;12.88;78.37;99059.38;5081104;28;45247;-55
2021/12/28 02:23:41;;;;;;;;;0.00;0.00;;;;;12.91;78.44;99050.31;5080970;28;45512;-55
2021/12/28 02:26:07;;;;;;;;;0.25;0.00;;;;;12.90;78.02;99068.00;5081070;28;45230;-56
2021/12/28 02:28:33;;;;;;;;;0.00;0.00;;;;;12.91;78.12;99077.59;5080494;27;45464;-55
2021/12/28 02:31:00;;;;;;;;;0.00;0.00;;;;;12.88;78.10;99088.44;5080612;28;45319;-55
2021/12/28 02:33:26;;;;;;;;;0.00;0.00;;;;;12.84;77.86;99081.78;5080892;28;45346;-55
2021/12/28 02:36:01;;;;;;;;;0.00;0.00;;;;;12.80;77.67;99083.06;5081012;28;45448;-55
2021/12/28 02:38:27;;;;;;;;;0.00;0.00;;;;;12.75;77.83;99093.22;5080580;28;45990;-53
2021/12/28 02:40:53;;;;;;;;;0.00;0.00;;;;;12.71;77.61;99092.66;5080737;28;45236;-55
2021/12/28 02:43:18;;;;;;;;;0.00;0.00;;;;;12.68;77.82;99103.53;5080719;28;45296;-53
2021/12/28 02:45:51;;;;;;;;;0.00;0.00;;;;;12.65;77.66;99116.22;5083538;28;45230;-55
2021/12/28 02:48:16;;;;;;;;;0.00;0.00;;;;;12.60;77.84;99135.13;5083910;28;45321;-55
2021/12/28 02:50:48;;;;;;;;;0.75;0.00;;;;;12.57;77.95;99136.25;5066839;28;45238;-55
2021/12/28 02:53:15;;;;;;;;;0.00;0.00;;;;;12.55;77.71;99137.34;5063393;28;45333;-55
2021/12/28 02:55:41;;;;;;;;;0.00;0.00;;;;;12.55;77.78;99146.09;5070744;28;45523;-55
2021/12/28 02:58:12;;;;;;;;;0.50;0.00;;;;;12.55;78.00;99155.84;5066232;27;45307;-55
2021/12/28 03:00:40;;;;;;;;;0.00;0.00;;;;;12.55;77.89;99153.19;5068229;28;45328;-55
2021/12/28 03:03:26;;;;;;;;;0.00;0.00;;;;;12.57;78.01;99161.84;5082784;28;45409;-56
2021/12/28 03:05:54;;;;;;;;;1.00;0.00;;;;;12.60;77.82;99172.09;5083910;28;45372;-56
2021/12/28 03:08:22;;;;;;;;;0.50;0.00;;;;;12.64;77.78;99173.50;5083689;28;45997;-55
2021/12/28 03:10:48;;;;;;;;;1.00;0.00;;;;;12.66;77.61;99176.00;5083474;28;45348;-55
2021/12/28 03:13:18;;;;;;;;;0.25;0.00;;;;;12.67;77.61;99175.00;5083770;28;45500;-58
2021/12/28 03:15:44;;;;;;;;;0.00;0.00;;;;;12.68;77.68;99174.88;5080496;28;45498;-55
2021/12/28 03:18:09;;;;;;;;;0.00;0.00;;;;;12.71;77.40;99179.03;5063219;28;46346;-55
2021/12/28 03:20:36;;;;;;;;;0.00;0.00;;;;;12.72;77.61;99170.16;5063156;28;45574;-55
2021/12/28 03:23:03;;;;;;;;;0.00;0.00;;;;;12.71;77.59;99171.94;5063486;28;45237;-55
2021/12/28 03:25:28;;;;;;;;;0.00;0.00;;;;;12.68;77.52;99172.22;5063174;28;45269;-54
2021/12/28 03:27:54;;;;;;;;;1.00;0.00;;;;;12.66;77.59;99168.06;5063208;28;46238;-55
2021/12/28 03:30:19;;;;;;;;;0.00;0.00;;;;;12.65;77.43;99182.25;5062627;28;45370;-55
2021/12/28 03:32:46;;;;;;;;;2.50;0.00;;;;;12.64;77.39;99184.06;5063281;28;45319;-55
2021/12/28 03:35:13;;;;;;;;;0.50;0.00;;;;;12.67;77.51;99185.59;5063135;28;46186;-55
2021/12/28 03:37:40;;;;;;;;;0.00;0.00;;;;;12.71;77.41;99181.66;5063035;28;45418;-54
2021/12/28 03:40:09;;;;;;;;;0.00;0.00;;;;;12.72;77.03;99186.84;5062824;28;45243;-55
2021/12/28 03:42:36;;;;;;;;;0.00;0.00;;;;;12.75;77.17;99183.88;5063076;28;45372;-55
2021/12/28 03:45:03;;;;;;;;;0.50;0.00;;;;;12.78;77.18;99194.16;5062617;28;45486;-55
2021/12/28 03:47:29;;;;;;;;;1.00;0.00;;;;;12.80;77.05;99197.53;5062786;28;46108;-55
2021/12/28 03:49:54;;;;;;;;;1.00;0.00;;;;;12.83;77.05;99196.38;5062521;28;45285;-55
2021/12/28 03:52:20;;;;;;;;;0.00;0.00;;;;;12.83;77.01;99199.03;5073015;28;45302;-54
2021/12/28 03:54:45;;;;;;;;;0.00;0.00;;;;;12.83;76.71;99197.22;5083138;28;45582;-55
2021/12/28 03:57:11;;;;;;;;;0.00;0.00;;;;;12.83;76.83;99202.50;5072083;28;46062;-55
2021/12/28 03:59:38;;;;;;;;;0.00;0.00;;;;;12.85;76.80;99203.19;5067784;28;45166;-54
2021/12/28 04:02:04;;;;;;;;;0.25;0.00;;;;;12.86;76.76;99202.22;5072981;28;45574;-55
2021/12/28 04:04:30;;;;;;;;;0.00;0.00;;;;;12.86;77.02;99206.66;5082902;28;45425;-55
2021/12/28 04:06:55;;;;;;;;;0.25;0.00;;;;;12.89;76.87;99216.13;5082594;28;45381;-54
2021/12/28 04:09:45;;;;;;;;;0.00;0.00;;;;;12.89;76.57;99205.56;5082861;28;45380;-55
2021/12/28 04:12:07;;;;;;;;;0.00;0.00;;;;;12.91;76.49;99219.47;5082874;28;45465;-54
2021/12/28 04:14:32;;;;;;;;;0.00;0.00;;;;;12.94;76.75;99212.06;5082706;28;45508;-55
2021/12/28 04:16:58;;;;;;;;;0.00;0.00;;;;;12.98;76.43;99209.97;5081515;28;46528;-55
2021/12/28 04:19:23;;;;;;;;;0.50;0.00;;;;;12.98;76.31;99207.34;5082517;28;45322;-55
2021/12/28 04:21:49;;;;;;;;;0.50;0.00;;;;;13.02;76.43;99214.81;5082596;28;45202;-55
2021/12/28 04:24:14;;;;;;;;;0.00;0.00;;;;;13.03;76.51;99208.59;5082727;28;45485;-54
2021/12/28 04:26:40;;;;;;;;;0.00;0.00;;;;;13.04;76.29;99207.59;5082481;28;45399;-55
2021/12/28 04:29:05;;;;;;;;;1.00;0.00;;;;;13.05;76.15;99221.66;5076258;28;45530;-54
2021/12/28 04:31:31;;;;;;;;;1.00;0.00;;;;;13.08;76.04;99226.66;5062069;28;45227;-55
2021/12/28 04:33:56;;;;;;;;;0.00;0.00;;;;;13.06;76.02;99234.72;5062166;28;45398;-55
2021/12/28 04:36:22;;;;;;;;;0.00;0.00;;;;;13.08;76.12;99235.41;5062000;28;45468;-55
2021/12/28 04:38:48;;;;;;;;;0.50;0.00;;;;;13.10;76.20;99229.97;5061946;28;45421;-55
2021/12/28 04:41:14;;;;;;;;;0.75;0.00;;;;;13.15;76.02;99235.66;5062154;28;45334;-55
2021/12/28 04:43:39;;;;;;;;;0.75;0.00;;;;;13.18;75.90;99240.66;5062155;28;45331;-55
2021/12/28 04:46:06;;;;;;;;;0.00;0.00;;;;;13.20;75.87;99233.47;5061694;28;45863;-56
2021/12/28 04:48:32;;;;;;;;;1.00;0.00;;;;;13.21;75.81;99231.66;5060403;28;45415;-55
2021/12/28 04:50:58;;;;;;;;;0.50;0.00;;;;;13.22;75.53;99220.09;5061846;28;45339;-55
2021/12/28 04:53:24;;;;;;;;;0.00;0.00;;;;;13.21;75.65;99223.72;5080593;28;45241;-55
2021/12/28 04:55:50;;;;;;;;;0.75;0.00;;;;;13.23;75.35;99227.03;5081767;28;45405;-54
2021/12/28 04:58:17;;;;;;;;;0.00;0.00;;;;;13.23;75.41;99227.03;5063200;27;45334;-55
2021/12/28 05:00:45;;;;;;;;;0.00;0.00;;;;;13.20;75.40;99230.81;5067061;28;45349;-55
2021/12/28 05:03:12;;;;;;;;;0.75;0.00;;;;;13.21;75.07;99237.78;5081470;28;45310;-55
2021/12/28 05:05:43;;;;;;;;;0.00;0.00;;;;;13.20;75.00;99240.56;5081692;28;45196;-55
2021/12/28 05:08:09;;;;;;;;;0.00;0.00;;;;;13.21;75.01;99247.53;5080799;28;45349;-56
2021/12/28 05:10:34;;;;;;;;;0.00;0.00;;;;;13.22;74.84;99254.47;5082076;28;45395;-55
2021/12/28 05:13:00;;;;;;;;;1.00;0.00;;;;;13.23;74.93;99254.31;5081858;28;45476;-56
2021/12/28 05:15:26;;;;;;;;;1.00;0.00;;;;;13.24;74.69;99250.69;5081333;28;45357;-56
2021/12/28 05:17:51;;;;;;;;;0.50;0.00;;;;;13.28;74.35;99262.66;5081814;28;45263;-55
2021/12/28 05:20:16;;;;;;;;;2.00;0.00;;;;;13.30;74.63;99271.28;5081774;28;45323;-55
2021/12/28 05:22:42;;;;;;;;;2.00;0.00;;;;;13.31;74.27;99280.03;5081835;28;45438;-55
2021/12/28 05:25:08;;;;;;;;;0.00;0.00;;;;;13.32;74.38;99266.69;5081582;28;45365;-55
2021/12/28 05:27:35;;;;;;;;;0.00;0.00;;;;;13.33;74.21;99286.00;5081732;28;45437;-53
2021/12/28 05:30:01;;;;;;;;;1.25;0.00;;;;;13.34;74.03;99285.03;5081092;28;45281;-55
2021/12/28 05:32:26;;;;;;;;;1.00;0.00;;;;;13.35;74.03;99297.28;5081619;28;45294;-55
2021/12/28 05:34:52;;;;;;;;;2.00;0.00;;;;;13.37;74.19;99292.69;5081076;28;46578;-55
2021/12/28 05:37:18;;;;;;;;;2.00;0.00;;;;;13.39;73.87;99298.69;5081659;28;45475;-55
2021/12/28 05:39:43;;;;;;;;;1.00;0.00;;;;;13.40;73.89;99297.69;5081523;28;45382;-55
2021/12/28 05:42:09;;;;;;;;;0.00;0.00;;;;;13.39;73.79;99301.31;5081751;28;45324;-55
2021/12/28 05:44:35;;;;;;;;;1.00;0.00;;;;;13.40;73.61;99303.81;5081212;28;46212;-55
2021/12/28 05:47:00;;;;;;;;;0.00;0.00;;;;;13.40;73.71;99306.47;5080876;28;45344;-55
2021/12/28 05:49:26;;;;;;;;;0.00;0.00;;;;;13.39;73.80;99310.09;5074891;28;45486;-55
2021/12/28 05:51:52;;;;;;;;;1.00;0.00;;;;;13.40;73.76;99309.09;5061173;28;45302;-54
2021/12/28 05:54:18;;;;;;;;;3.50;0.00;;;;;13.40;73.63;99318.84;5060871;28;45425;-55
2021/12/28 05:56:45;;;;;;;;;0.00;0.00;;;;;13.39;73.66;99315.38;5069342;28;45520;-56
2021/12/28 05:59:10;;;;;;;;;1.50;0.00;;;;;13.41;73.53;99312.59;5064664;28;45309;-55
2021/12/28 06:01:37;;;;;;;;;1.25;0.50;;;;;13.40;73.51;99309.09;5067440;28;45212;-55
2021/12/28 06:04:04;;;;;;;;;2.00;0.00;;;;;13.43;73.63;99320.38;5080993;27;45552;-55
2021/12/28 06:06:29;;;;;;;;;0.50;0.00;;;;;13.43;73.32;99323.88;5081101;28;45313;-56
2021/12/28 06:08:55;;;;;;;;;0.00;0.00;;;;;13.44;73.29;99332.66;5081220;28;45251;-57
2021/12/28 06:11:21;;;;;;;;;1.75;0.00;;;;;13.45;73.13;99329.03;5081252;28;45318;-56
2021/12/28 06:13:47;;;;;;;;;0.75;0.00;;;;;13.47;72.88;99327.06;5080619;28;46447;-55
2021/12/28 06:16:14;;;;;;;;;0.00;0.00;;;;;13.47;72.74;99329.69;5080897;28;45305;-54
2021/12/28 06:18:41;;;;;;;;;1.75;0.50;;;;;13.48;72.43;99331.34;5080849;28;45398;-55
2021/12/28 06:21:06;;;;;;;;;2.00;0.00;;;;;13.47;72.50;99343.75;5084645;28;45226;-55
2021/12/28 06:23:32;;;;;;;;;2.75;0.00;;;;;13.48;72.45;99328.72;5084177;28;45987;-56
2021/12/28 06:25:58;;;;;;;;;3.00;0.00;;;;;13.48;71.96;99341.94;5084402;28;45508;-56
2021/12/28 06:28:23;;;;;;;;;0.00;0.00;;;;;13.50;72.02;99345.28;5084308;28;45321;-57
2021/12/28 06:30:49;;;;;;;;;3.50;2.00;;;;;13.50;71.85;99347.91;5084370;28;45313;-55
2021/12/28 06:33:15;;;;;;;;;0.75;0.00;;;;;13.49;71.83;99347.09;5084005;28;46011;-55
2021/12/28 06:35:41;;;;;;;;;3.00;0.00;;;;;13.49;71.63;99356.84;5084136;28;45282;-56
2021/12/28 06:38:07;;;;;;;;;3.50;0.50;;;;;13.47;71.72;99364.09;5084218;28;45444;-55
2021/12/28 06:40:33;;;;;;;;;1.00;0.00;;;;;13.44;71.52;99377.59;5084222;28;45418;-56
2021/12/28 06:42:58;;;;;;;;;0.00;0.00;;;;;13.38;71.59;99387.78;5083965;28;46088;-55
2021/12/28 06:45:24;;;;;;;;;2.50;0.50;;;;;13.33;71.71;99387.34;5083954;28;45364;-56
2021/12/28 06:47:49;;;;;;;;;1.75;0.00;;;;;13.29;71.24;99385.16;5084003;28;45294;-54
2021/12/28 06:50:15;;;;;;;;;0.75;0.00;;;;;13.24;71.54;99388.19;5070846;28;45579;-55
2021/12/28 06:52:42;;;;;;;;;2.00;1.00;;;;;13.20;71.30;99397.41;5063527;28;45179;-56
2021/12/28 06:55:08;;;;;;;;;2.75;0.00;;;;;13.17;71.24;99402.94;5066021;28;45449;-55
2021/12/28 06:57:35;;;;;;;;;1.25;1.25;;;;;13.16;71.38;99393.31;5069375;27;45302;-54
2021/12/28 07:00:05;;;;;;;;;1.00;0.00;;;;;13.16;71.12;99382.75;5067060;28;45461;-56
2021/12/28 07:02:31;;;;;;;;;1.00;0.00;;;;;13.18;71.20;99398.47;5077518;28;46756;-55
2021/12/28 07:04:56;;;;;;;;;1.00;0.00;;;;;13.19;70.89;99400.97;5083656;28;45225;-55
2021/12/28 07:07:22;;;;;;;;;1.00;1.00;;;;;13.23;71.13;99407.69;5084008;28;45232;-55
2021/12/28 07:09:47;;;;;;;;;3.75;1.00;;;;;13.26;70.78;99409.22;5083974;28;45472;-56
2021/12/28 07:12:13;;;;;;;;;5.75;1.00;;;;;13.28;71.01;99418.69;5083593;28;45284;-56
2021/12/28 07:14:38;;;;;;;;;1.50;0.00;;;;;13.30;70.80;99414.09;5083863;28;45401;-56
2021/12/28 07:17:05;;;;;;;;;2.00;0.50;;;;;13.34;70.80;99415.47;5083373;28;45318;-55
2021/12/28 07:19:30;;;;;;;;;1.75;1.00;;;;;13.37;70.71;99417.84;5083953;28;45576;-56
2021/12/28 07:21:57;;;;;;;;;3.00;1.00;;;;;13.38;70.44;99416.88;5083130;28;45341;-56
2021/12/28 07:24:22;;;;;;;;;4.75;1.00;;;;;13.38;70.53;99416.03;5083510;28;45293;-56
2021/12/28 07:26:48;;;;;;;;;3.75;1.75;;;;;13.38;70.57;99422.16;5083307;28;45512;-55
2021/12/28 07:29:14;;;;;;;;;2.00;0.00;;;;;13.38;70.32;99427.44;5083534;28;45297;-56
2021/12/28 07:31:40;;;;;;;;;10.75;1.00;;;;;13.39;70.51;99430.94;5081820;28;45360;-56
2021/12/28 07:34:06;;;;;;;;;5.25;1.00;;;;;13.39;70.71;99433.56;5083437;28;45332;-56
2021/12/28 07:36:32;;;;;;;;;3.00;1.00;;;;;13.40;70.80;99425.50;5083324;28;45234;-56
2021/12/28 07:38:59;;;;;;;;;1.75;1.00;;;;;13.41;70.54;99437.72;5083587;28;45318;-56
2021/12/28 07:41:24;;;;;;;;;2.00;0.00;;;;;13.40;70.54;99425.50;5082958;28;46249;-56
2021/12/28 07:43:50;;;;;;;;;2.00;0.25;;;;;13.39;70.54;99446.78;5083178;28;45382;-56
2021/12/28 07:46:16;;;;;;;;;5.00;1.25;;;;;13.38;70.66;99455.72;5083255;28;45274;-56
2021/12/28 07:48:42;;;;;;;;;2.25;0.00;;;;;13.39;70.86;99452.91;5082742;28;45505;-56
2021/12/28 07:51:08;;;;;;;;;0.25;0.25;;;;;13.39;70.68;99466.16;5062854;28;45384;-56
2021/12/28 07:53:34;;;;;;;;;1.00;0.75;;;;;13.39;70.93;99470.59;5081645;28;45642;-56
2021/12/28 07:56:00;;;;;;;;;2.00;1.00;;;;;13.38;70.81;99467.13;5078925;28;45386;-54
2021/12/28 07:58:27;;;;;;;;;3.50;1.00;;;;;13.40;71.17;99488.13;5062841;28;45534;-56
2021/12/28 08:00:52;;;;;;;;;2.25;0.00;;;;;13.41;70.90;99490.63;5067774;28;46537;-55
2021/12/28 08:03:19;;;;;;;;;2.00;0.00;;;;;13.43;71.21;99479.94;5082882;27;45275;-55
2021/12/28 08:05:45;;;;;;;;;2.00;0.00;;;;;13.42;71.28;99486.19;5082816;28;45365;-55
2021/12/28 08:08:11;;;;;;;;;3.00;0.00;;;;;13.42;71.41;99494.13;5083019;27;45484;-55
2021/12/28 08:10:37;;;;;;;;;0.00;0.00;;;;;13.41;71.30;99506.50;5081102;28;45851;-56
2021/12/28 08:13:03;;;;;;;;;3.75;0.50;;;;;13.42;71.95;99502.06;5082484;28;45254;-56
2021/12/28 08:15:29;;;;;;;;;2.00;0.50;;;;;13.39;71.87;99505.81;5082275;28;45164;-54
2021/12/28 08:17:54;;;;;;;;;1.75;0.75;;;;;13.38;72.23;99506.78;5082872;28;45241;-55
2021/12/28 08:20:20;;;;;;;;;1.00;0.00;;;;;13.37;72.28;99515.72;5082567;28;45903;-55
2021/12/28 08:22:47;;;;;;;;;1.00;0.00;;;;;13.36;72.27;99515.84;5082641;28;45237;-55
2021/12/28 08:25:16;;;;;;;;;0.50;0.50;;;;;13.36;72.01;99526.44;5082162;28;45334;-55
2021/12/28 08:27:42;;;;;;;;;2.00;1.00;;;;;13.35;72.18;99536.19;5082566;28;45588;-55
2021/12/28 08:30:09;;;;;;;;;1.25;0.75;;;;;13.38;72.34;99533.25;5081899;28;45296;-56
2021/12/28 08:32:35;;;;;;;;;0.50;0.00;;;;;13.41;72.41;99542.72;5082292;28;45240;-56
2021/12/28 08:35:01;;;;;;;;;2.50;0.25;;;;;13.44;72.37;99546.91;5082210;28;45315;-56
2021/12/28 08:37:27;;;;;;;;;0.00;0.00;;;;;13.44;72.49;99550.38;5082603;28;45169;-56
2021/12/28 08:39:53;;;;;;;;;0.00;0.00;;;;;13.44;71.96;99565.44;5082488;28;46078;-56
2021/12/28 08:42:21;;;;;;;;;1.00;0.00;;;;;13.42;71.82;99554.97;5082243;28;45389;-56
2021/12/28 08:44:47;;;;;;;;;1.25;0.00;;;;;13.40;72.03;99544.53;5081996;28;45334;-57
2021/12/28 08:47:12;;;;;;;;;0.00;0.00;;;;;13.40;72.30;99555.09;5082164;28;45482;-56
2021/12/28 08:49:38;;;;;;;;;0.75;0.00;;;;;13.43;72.61;99561.06;5073595;28;45961;-56
2021/12/28 08:52:04;;;;;;;;;0.25;0.00;;;;;13.45;72.87;99573.22;5061644;28;45250;-56
2021/12/28 08:54:30;;;;;;;;;0.00;0.00;;;;;13.46;73.14;99568.75;5061608;28;45275;-56
2021/12/28 08:56:56;;;;;;;;;2.00;0.00;;;;;13.43;73.06;99567.22;5070820;28;45161;-56
2021/12/28 08:59:21;;;;;;;;;0.00;0.00;;;;;13.44;73.35;99565.44;5065100;28;45351;-56
2021/12/28 09:01:48;;;;;;;;;2.00;0.00;;;;;13.43;73.42;99569.88;5069636;28;45212;-55
2021/12/28 09:04:13;;;;;;;;;0.00;0.00;;;;;13.41;73.47;99579.75;5081830;28;45334;-56
2021/12/28 09:06:39;;;;;;;;;2.00;0.50;;;;;13.40;73.35;99572.78;5081899;28;45475;-56
2021/12/28 09:09:05;;;;;;;;;0.00;0.00;;;;;13.40;73.06;99576.25;5081674;28;45540;-56
2021/12/28 09:11:31;;;;;;;;;1.50;0.00;;;;;13.40;72.85;99572.78;5082024;28;45322;-56
2021/12/28 09:13:56;;;;;;;;;0.00;0.00;;;;;13.40;72.66;99581.56;5081808;28;45489;-56
2021/12/28 09:16:23;;;;;;;;;2.50;0.75;;;;;13.40;71.69;99575.44;5081857;28;45296;-56
2021/12/28 09:18:48;;;;;;;;;1.25;0.00;;;;;13.40;71.31;99580.72;5080823;28;45363;-56
2021/12/28 09:21:14;;;;;;;;;0.00;0.00;;;;;13.43;71.14;99569.03;5081453;28;45240;-56
2021/12/28 09:23:40;;;;;;;;;1.25;0.00;;;;;13.45;71.09;99560.00;5081430;28;45262;-55
2021/12/28 09:26:05;;;;;;;;;4.25;1.00;;;;;13.44;70.59;99571.56;5081803;28;45299;-55
2021/12/28 09:28:31;;;;;;;;;3.75;0.00;;;;;13.46;70.45;99580.19;5081299;28;45410;-56
2021/12/28 09:30:57;;;;;;;;;0.25;0.25;;;;;13.48;70.03;99582.69;5081557;28;45346;-54
2021/12/28 09:33:24;;;;;;;;;8.25;1.00;;;;;13.50;69.72;99572.78;5066664;28;45313;-54
2021/12/28 09:35:51;;;;;;;;;4.00;0.50;;;;;13.51;69.45;99575.31;5081598;28;45340;-56
2021/12/28 09:38:19;;;;;;;;;4.75;0.00;;;;;13.52;69.09;99584.94;5081154;28;45356;-54
2021/12/28 09:40:46;;;;;;;;;5.00;0.75;;;;;13.54;69.06;99587.44;5081431;28;45200;-56
2021/12/28 09:43:13;;;;;;;;;2.75;1.00;;;;;13.53;68.87;99594.53;5081373;28;45464;-55
2021/12/28 09:45:39;;;;;;;;;2.25;1.25;;;;;13.55;68.74;99603.16;5081350;28;45390;-56
2021/12/28 09:48:05;;;;;;;;;0.75;0.75;;;;;13.56;68.62;99604.81;5080930;28;45287;-56
2021/12/28 09:50:31;;;;;;;;;3.50;1.00;;;;;13.57;67.81;99597.72;5065831;28;45386;-58
2021/12/28 09:52:57;;;;;;;;;1.75;0.50;;;;;13.57;67.67;99610.94;5060977;28;45276;-56
2021/12/28 09:55:24;;;;;;;;;2.75;1.00;;;;;13.57;67.10;99603.00;5064975;28;45679;-56
2021/12/28 09:57:51;;;;;;;;;4.00;0.50;;;;;13.58;67.41;99604.69;5064585;27;46347;-56
2021/12/28 10:00:19;;;;;;;;;4.25;1.25;;;;;13.59;66.88;99609.88;5064320;28;45433;-55
2021/12/28 10:02:45;;;;;;;;;6.00;0.25;;;;;13.61;66.99;99609.72;5077003;28;45295;-56
2021/12/28 10:05:18;;;;;;;;;1.75;1.00;;;;;13.62;66.36;99617.50;5081210;28;45465;-56
2021/12/28 10:08:04;;;;;;;;;4.50;1.00;;;;;13.62;65.37;99624.63;5081072;28;46238;-56
2021/12/28 10:10:37;;;;;;;;;3.25;1.00;;;;;13.62;65.35;99614.03;5066029;28;45730;-56
2021/12/28 10:13:10;;;;;;;;;3.00;1.00;;;;;13.63;65.29;99613.88;5060810;28;45278;-56
2021/12/28 10:15:39;;;;;;;;;3.50;1.00;;;;;13.64;65.03;99612.06;5060303;28;45221;-56
2021/12/28 10:18:08;;;;;;;;;3.75;2.00;;;;;13.62;64.63;99612.22;5060389;28;45692;-56
2021/12/28 10:20:39;;;;;;;;;5.50;3.00;;;;;13.62;64.93;99620.16;5060395;28;45288;-56
2021/12/28 10:23:10;;;;;;;;;1.50;1.25;;;;;13.62;64.53;99635.19;5060526;28;45275;-55
2021/12/28 10:25:39;;;;;;;;;5.50;1.00;;;;;13.62;64.05;99624.63;5060376;28;45494;-56
2021/12/28 10:28:13;;;;;;;;;4.25;2.75;;;;;13.63;64.11;99621.00;5060377;28;47077;-56
2021/12/28 10:30:43;;;;;;;;;2.50;1.00;;;;;13.63;63.90;99632.41;5060011;28;45275;-56
2021/12/28 10:33:15;;;;;;;;;4.25;2.00;;;;;13.67;63.58;99633.00;5060374;28;45257;-56
2021/12/28 10:35:57;;;;;;;;;4.50;3.25;;;;;13.67;63.52;99633.00;5067732;28;45417;-55
2021/12/28 10:38:26;;;;;;;;;13.00;3.25;;;;;13.71;63.32;99630.88;5080509;28;46059;-56
2021/12/28 10:40:54;;;;;;;;;3.75;1.50;;;;;13.72;63.14;99638.69;5080912;28;45360;-56
2021/12/28 10:43:28;;;;;;;;;5.50;1.00;;;;;13.73;62.63;99640.34;5080681;28;45308;-57
2021/12/28 10:46:04;;;;;;;;;6.00;3.00;;;;;13.74;62.88;99649.13;5080593;28;45429;-56
2021/12/28 10:48:42;;;;;;;;;5.75;3.50;;;;;13.75;62.88;99654.31;5080132;28;45333;-56
2021/12/28 10:51:14;;;;;;;;;4.50;2.50;;;;;13.78;62.87;99664.59;5060070;28;45224;-56
2021/12/28 10:56:32;;;;;;;;;3.25;2.00;;;;;13.83;62.64;99635.09;5069415;28;45252;-56
2021/12/28 10:58:58;;;;;;;;;8.25;2.50;;;;;13.82;62.22;99659.88;5062562;28;46330;-56
2021/12/28 11:01:27;;;;;;;;;11.25;2.50;;;;;13.80;62.44;99657.34;5066182;27;45229;-56
2021/12/28 11:03:59;;;;;;;;;4.00;2.25;;;;;13.80;62.35;99654.72;5080456;27;45372;-55
2021/12/28 11:06:28;;;;;;;;;6.25;2.50;;;;;13.82;62.05;99657.22;5081183;28;45217;-56
2021/12/28 11:08:56;;;;;;;;;6.75;2.00;;;;;13.82;62.31;99651.91;5068975;28;45353;-56
2021/12/28 11:11:24;;;;;;;;;13.50;4.50;;;;;13.83;62.37;99656.28;5063347;28;45258;-56
2021/12/28 11:13:58;;;;;;;;;3.50;1.75;;;;;13.82;62.00;99659.88;5063409;28;45287;-56
2021/12/28 11:16:26;;;;;;;;;11.25;1.75;;;;;13.79;62.10;99673.38;5063252;28;45252;-56
2021/12/28 11:18:54;;;;;;;;;7.25;2.75;;;;;13.77;62.12;99675.34;5063085;28;45302;-56
2021/12/28 11:21:23;;;;;;;;;4.00;2.50;;;;;13.75;61.86;99680.78;5063121;28;45315;-56
2021/12/28 11:23:55;;;;;;;;;4.75;2.50;;;;;13.80;61.69;99678.53;5063099;28;45386;-56
2021/12/28 11:26:30;;;;;;;;;6.00;3.75;;;;;13.91;61.66;99693.47;5063202;28;45276;-56
2021/12/28 11:29:06;;;;;;;;;9.75;3.00;;;;;13.98;61.14;99691.94;5062432;28;45332;-56
2021/12/28 11:31:47;;;;;;;;;5.75;3.25;;;;;13.97;61.26;99696.38;5062683;28;45455;-56
2021/12/28 11:34:35;;;;;;;;;3.00;2.00;;;;;13.96;60.99;99710.59;5071256;28;45357;-55
2021/12/28 11:37:10;;;;;;;;;2.00;1.75;;;;;13.98;60.95;99707.81;5083274;28;45251;-55